sensor_id;sensor_type;location;lat;lon;timestamp;P1;durP1;ratioP1;P2;durP2;ratioP2
12296;SDS011;6211;49.124;9.152;2022-09-02T00:01:19;2.53;;;2.22;;
12296;SDS011;6211;49.124;9.152;2022-09-02T00:03:48;2.97;;;2.38;;
12296;SDS011;6211;49.124;9.152;2022-09-02T00:06:15;3.05;;;2.40;;
12296;SDS011;6211;49.124;9.152;2022-09-02T00:08:43;3.47;;;2.60;;
12296;SDS011;6211;49.124;9.152;2022-09-02T00:11:11;2.85;;;2.55;;
12296;SDS011;6211;49.124;9.152;2022-09-02T00:13:42;2.95;;;2.63;;
12296;SDS011;6211;49.124;9.152;2022-09-02T00:16:09;2.92;;;2.70;;
12296;SDS011;6211;49.124;9.152;2022-09-02T00:18:37;2.97;;;2.67;;
12296;SDS011;6211;49.124;9.152;2022-09-02T00:21:05;4.10;;;2.70;;
12296;SDS011;6211;49.124;9.152;2022-09-02T00:23:32;4.32;;;3.13;;
12296;SDS011;6211;49.124;9.152;2022-09-02T00:25:59;4.40;;;2.22;;
12296;SDS011;6211;49.124;9.152;2022-09-02T00:28:26;2.50;;;2.30;;
12296;SDS011;6211;49.124;9.152;2022-09-02T00:30:55;2.83;;;2.33;;
12296;SDS011;6211;49.124;9.152;2022-09-02T00:33:22;4.35;;;3.05;;
12296;SDS011;6211;49.124;9.152;2022-09-02T00:35:49;3.78;;;2.55;;
12296;SDS011;6211;49.124;9.152;2022-09-02T00:38:16;2.63;;;2.42;;
12296;SDS011;6211;49.124;9.152;2022-09-02T00:40:44;4.20;;;2.45;;
12296;SDS011;6211;49.124;9.152;2022-09-02T00:43:12;4.30;;;2.72;;
12296;SDS011;6211;49.124;9.152;2022-09-02T00:45:47;2.75;;;2.50;;
12296;SDS011;6211;49.124;9.152;2022-09-02T00:48:16;3.55;;;2.88;;
12296;SDS011;6211;49.124;9.152;2022-09-02T00:50:43;3.08;;;2.63;;
12296;SDS011;6211;49.124;9.152;2022-09-02T00:53:10;3.60;;;2.83;;
12296;SDS011;6211;49.124;9.152;2022-09-02T00:55:40;3.30;;;2.75;;
12296;SDS011;6211;49.124;9.152;2022-09-02T00:58:15;3.17;;;2.70;;
12296;SDS011;6211;49.124;9.152;2022-09-02T01:00:45;4.05;;;3.08;;
12296;SDS011;6211;49.124;9.152;2022-09-02T01:03:14;2.88;;;2.38;;
12296;SDS011;6211;49.124;9.152;2022-09-02T01:05:44;3.95;;;2.58;;
12296;SDS011;6211;49.124;9.152;2022-09-02T01:08:12;4.40;;;2.80;;
12296;SDS011;6211;49.124;9.152;2022-09-02T01:10:40;4.55;;;2.50;;
12296;SDS011;6211;49.124;9.152;2022-09-02T01:13:10;2.63;;;2.35;;
12296;SDS011;6211;49.124;9.152;2022-09-02T01:15:38;5.68;;;3.30;;
12296;SDS011;6211;49.124;9.152;2022-09-02T01:18:08;3.40;;;2.85;;
12296;SDS011;6211;49.124;9.152;2022-09-02T01:20:36;4.38;;;3.15;;
12296;SDS011;6211;49.124;9.152;2022-09-02T01:23:04;2.90;;;2.55;;
12296;SDS011;6211;49.124;9.152;2022-09-02T01:25:32;5.07;;;3.55;;
12296;SDS011;6211;49.124;9.152;2022-09-02T01:28:00;3.10;;;2.65;;
12296;SDS011;6211;49.124;9.152;2022-09-02T01:30:28;4.88;;;2.95;;
12296;SDS011;6211;49.124;9.152;2022-09-02T01:32:55;3.00;;;2.58;;
12296;SDS011;6211;49.124;9.152;2022-09-02T01:35:23;3.13;;;2.55;;
12296;SDS011;6211;49.124;9.152;2022-09-02T01:37:52;2.60;;;2.40;;
12296;SDS011;6211;49.124;9.152;2022-09-02T01:40:21;3.65;;;3.20;;
12296;SDS011;6211;49.124;9.152;2022-09-02T01:42:49;3.70;;;2.67;;
12296;SDS011;6211;49.124;9.152;2022-09-02T01:45:19;3.75;;;2.67;;
12296;SDS011;6211;49.124;9.152;2022-09-02T01:47:46;3.05;;;2.60;;
12296;SDS011;6211;49.124;9.152;2022-09-02T01:50:13;3.75;;;3.10;;
12296;SDS011;6211;49.124;9.152;2022-09-02T01:52:40;3.50;;;3.20;;
12296;SDS011;6211;49.124;9.152;2022-09-02T01:55:08;4.05;;;3.50;;
12296;SDS011;6211;49.124;9.152;2022-09-02T01:57:37;3.50;;;3.17;;
12296;SDS011;6211;49.124;9.152;2022-09-02T02:00:05;4.28;;;2.78;;
12296;SDS011;6211;49.124;9.152;2022-09-02T02:02:32;3.72;;;3.15;;
12296;SDS011;6211;49.124;9.152;2022-09-02T02:04:59;4.63;;;3.47;;
12296;SDS011;6211;49.124;9.152;2022-09-02T02:07:26;9.85;;;3.53;;
12296;SDS011;6211;49.124;9.152;2022-09-02T02:09:53;4.93;;;3.22;;
12296;SDS011;6211;49.124;9.152;2022-09-02T02:12:20;3.75;;;3.45;;
12296;SDS011;6211;49.124;9.152;2022-09-02T02:14:49;2.97;;;2.50;;
12296;SDS011;6211;49.124;9.152;2022-09-02T02:17:16;4.90;;;3.35;;
12296;SDS011;6211;49.124;9.152;2022-09-02T02:19:43;3.55;;;3.10;;
12296;SDS011;6211;49.124;9.152;2022-09-02T02:22:10;3.58;;;2.85;;
12296;SDS011;6211;49.124;9.152;2022-09-02T02:24:38;4.88;;;3.60;;
12296;SDS011;6211;49.124;9.152;2022-09-02T02:27:05;3.58;;;3.28;;
12296;SDS011;6211;49.124;9.152;2022-09-02T02:29:32;5.38;;;3.70;;
12296;SDS011;6211;49.124;9.152;2022-09-02T02:32:01;4.93;;;3.58;;
12296;SDS011;6211;49.124;9.152;2022-09-02T02:34:29;3.10;;;2.80;;
12296;SDS011;6211;49.124;9.152;2022-09-02T02:36:56;6.07;;;3.75;;
12296;SDS011;6211;49.124;9.152;2022-09-02T02:39:23;4.32;;;2.97;;
12296;SDS011;6211;49.124;9.152;2022-09-02T02:41:50;5.13;;;3.30;;
12296;SDS011;6211;49.124;9.152;2022-09-02T02:44:17;5.80;;;2.95;;
12296;SDS011;6211;49.124;9.152;2022-09-02T02:46:44;5.68;;;3.67;;
12296;SDS011;6211;49.124;9.152;2022-09-02T02:49:12;3.90;;;3.15;;
12296;SDS011;6211;49.124;9.152;2022-09-02T02:51:40;4.68;;;3.40;;
12296;SDS011;6211;49.124;9.152;2022-09-02T02:54:07;4.25;;;3.40;;
12296;SDS011;6211;49.124;9.152;2022-09-02T02:56:35;4.40;;;3.40;;
12296;SDS011;6211;49.124;9.152;2022-09-02T02:59:02;4.95;;;3.28;;
12296;SDS011;6211;49.124;9.152;2022-09-02T03:01:29;6.18;;;4.28;;
12296;SDS011;6211;49.124;9.152;2022-09-02T03:03:57;3.67;;;3.08;;
12296;SDS011;6211;49.124;9.152;2022-09-02T03:06:25;5.40;;;4.10;;
12296;SDS011;6211;49.124;9.152;2022-09-02T03:08:53;4.10;;;3.60;;
12296;SDS011;6211;49.124;9.152;2022-09-02T03:11:21;4.85;;;3.55;;
12296;SDS011;6211;49.124;9.152;2022-09-02T03:13:52;4.78;;;3.83;;
12296;SDS011;6211;49.124;9.152;2022-09-02T03:16:19;4.97;;;3.28;;
12296;SDS011;6211;49.124;9.152;2022-09-02T03:18:47;4.70;;;3.88;;
12296;SDS011;6211;49.124;9.152;2022-09-02T03:21:14;4.32;;;3.63;;
12296;SDS011;6211;49.124;9.152;2022-09-02T03:23:43;4.20;;;3.40;;
12296;SDS011;6211;49.124;9.152;2022-09-02T03:26:11;4.65;;;3.45;;
12296;SDS011;6211;49.124;9.152;2022-09-02T03:28:39;5.78;;;3.70;;
12296;SDS011;6211;49.124;9.152;2022-09-02T03:31:06;3.75;;;3.10;;
12296;SDS011;6211;49.124;9.152;2022-09-02T03:33:38;3.97;;;3.38;;
12296;SDS011;6211;49.124;9.152;2022-09-02T03:36:05;5.22;;;3.53;;
12296;SDS011;6211;49.124;9.152;2022-09-02T03:38:33;4.88;;;3.83;;
12296;SDS011;6211;49.124;9.152;2022-09-02T03:41:01;3.28;;;2.97;;
12296;SDS011;6211;49.124;9.152;2022-09-02T03:43:29;3.60;;;2.90;;
12296;SDS011;6211;49.124;9.152;2022-09-02T03:45:56;4.32;;;3.45;;
12296;SDS011;6211;49.124;9.152;2022-09-02T03:48:23;4.68;;;3.28;;
12296;SDS011;6211;49.124;9.152;2022-09-02T03:50:50;3.03;;;2.72;;
12296;SDS011;6211;49.124;9.152;2022-09-02T03:53:17;3.90;;;2.83;;
12296;SDS011;6211;49.124;9.152;2022-09-02T03:55:44;3.67;;;3.15;;
12296;SDS011;6211;49.124;9.152;2022-09-02T03:58:12;5.13;;;3.38;;
12296;SDS011;6211;49.124;9.152;2022-09-02T04:00:40;5.97;;;3.35;;
12296;SDS011;6211;49.124;9.152;2022-09-02T04:03:08;4.82;;;3.35;;
12296;SDS011;6211;49.124;9.152;2022-09-02T04:05:35;5.22;;;3.75;;
12296;SDS011;6211;49.124;9.152;2022-09-02T04:08:03;5.82;;;3.78;;
12296;SDS011;6211;49.124;9.152;2022-09-02T04:10:30;4.30;;;3.33;;
12296;SDS011;6211;49.124;9.152;2022-09-02T04:12:58;4.18;;;3.78;;
12296;SDS011;6211;49.124;9.152;2022-09-02T04:15:26;8.10;;;3.75;;
12296;SDS011;6211;49.124;9.152;2022-09-02T04:17:53;3.67;;;3.33;;
12296;SDS011;6211;49.124;9.152;2022-09-02T04:20:20;4.28;;;3.42;;
12296;SDS011;6211;49.124;9.152;2022-09-02T04:22:47;3.42;;;2.90;;
12296;SDS011;6211;49.124;9.152;2022-09-02T04:25:15;4.97;;;3.30;;
12296;SDS011;6211;49.124;9.152;2022-09-02T04:27:42;4.75;;;3.70;;
12296;SDS011;6211;49.124;9.152;2022-09-02T04:30:09;4.80;;;3.38;;
12296;SDS011;6211;49.124;9.152;2022-09-02T04:32:41;3.47;;;3.00;;
12296;SDS011;6211;49.124;9.152;2022-09-02T04:35:09;5.47;;;3.85;;
12296;SDS011;6211;49.124;9.152;2022-09-02T04:37:36;4.60;;;3.25;;
12296;SDS011;6211;49.124;9.152;2022-09-02T04:40:04;4.30;;;2.97;;
12296;SDS011;6211;49.124;9.152;2022-09-02T04:42:31;4.80;;;4.18;;
12296;SDS011;6211;49.124;9.152;2022-09-02T04:44:59;3.33;;;2.70;;
12296;SDS011;6211;49.124;9.152;2022-09-02T04:47:27;3.63;;;3.17;;
12296;SDS011;6211;49.124;9.152;2022-09-02T04:49:56;4.15;;;3.75;;
12296;SDS011;6211;49.124;9.152;2022-09-02T04:52:23;3.95;;;3.45;;
12296;SDS011;6211;49.124;9.152;2022-09-02T04:54:50;3.60;;;2.97;;
12296;SDS011;6211;49.124;9.152;2022-09-02T04:57:17;3.92;;;3.33;;
12296;SDS011;6211;49.124;9.152;2022-09-02T04:59:44;3.17;;;2.88;;
12296;SDS011;6211;49.124;9.152;2022-09-02T05:02:11;4.45;;;2.67;;
12296;SDS011;6211;49.124;9.152;2022-09-02T05:04:39;5.00;;;3.45;;
12296;SDS011;6211;49.124;9.152;2022-09-02T05:07:07;3.30;;;3.00;;
12296;SDS011;6211;49.124;9.152;2022-09-02T05:09:35;2.75;;;2.53;;
12296;SDS011;6211;49.124;9.152;2022-09-02T05:12:03;3.47;;;3.17;;
12296;SDS011;6211;49.124;9.152;2022-09-02T05:14:31;2.42;;;2.22;;
12296;SDS011;6211;49.124;9.152;2022-09-02T05:16:58;4.15;;;2.70;;
12296;SDS011;6211;49.124;9.152;2022-09-02T05:19:25;2.70;;;2.35;;
12296;SDS011;6211;49.124;9.152;2022-09-02T05:21:53;3.03;;;2.72;;
12296;SDS011;6211;49.124;9.152;2022-09-02T05:24:24;4.35;;;2.97;;
12296;SDS011;6211;49.124;9.152;2022-09-02T05:26:52;3.67;;;3.33;;
12296;SDS011;6211;49.124;9.152;2022-09-02T05:29:19;2.60;;;2.35;;
12296;SDS011;6211;49.124;9.152;2022-09-02T05:31:47;2.97;;;2.55;;
12296;SDS011;6211;49.124;9.152;2022-09-02T05:34:15;5.43;;;3.35;;
12296;SDS011;6211;49.124;9.152;2022-09-02T05:36:42;4.45;;;2.75;;
12296;SDS011;6211;49.124;9.152;2022-09-02T05:39:09;3.38;;;2.97;;
12296;SDS011;6211;49.124;9.152;2022-09-02T05:41:38;3.40;;;2.80;;
12296;SDS011;6211;49.124;9.152;2022-09-02T05:44:05;2.92;;;2.72;;
12296;SDS011;6211;49.124;9.152;2022-09-02T05:46:33;3.05;;;2.40;;
12296;SDS011;6211;49.124;9.152;2022-09-02T05:49:00;3.22;;;2.92;;
12296;SDS011;6211;49.124;9.152;2022-09-02T05:51:31;2.70;;;2.50;;
12296;SDS011;6211;49.124;9.152;2022-09-02T05:53:59;2.88;;;2.50;;
12296;SDS011;6211;49.124;9.152;2022-09-02T05:56:26;2.92;;;2.65;;
12296;SDS011;6211;49.124;9.152;2022-09-02T05:58:55;5.80;;;3.40;;
12296;SDS011;6211;49.124;9.152;2022-09-02T06:01:24;4.80;;;2.80;;
12296;SDS011;6211;49.124;9.152;2022-09-02T06:03:51;3.50;;;3.05;;
12296;SDS011;6211;49.124;9.152;2022-09-02T06:06:18;2.88;;;2.55;;
12296;SDS011;6211;49.124;9.152;2022-09-02T06:08:46;3.22;;;2.95;;
12296;SDS011;6211;49.124;9.152;2022-09-02T06:11:14;2.80;;;2.60;;
12296;SDS011;6211;49.124;9.152;2022-09-02T06:13:42;2.63;;;2.35;;
12296;SDS011;6211;49.124;9.152;2022-09-02T06:16:13;6.03;;;2.53;;
12296;SDS011;6211;49.124;9.152;2022-09-02T06:18:40;3.55;;;2.45;;
12296;SDS011;6211;49.124;9.152;2022-09-02T06:21:07;3.60;;;2.55;;
12296;SDS011;6211;49.124;9.152;2022-09-02T06:23:35;2.63;;;2.35;;
12296;SDS011;6211;49.124;9.152;2022-09-02T06:26:03;2.75;;;2.55;;
12296;SDS011;6211;49.124;9.152;2022-09-02T06:28:30;2.75;;;2.45;;
12296;SDS011;6211;49.124;9.152;2022-09-02T06:30:57;2.67;;;2.47;;
12296;SDS011;6211;49.124;9.152;2022-09-02T06:33:26;2.90;;;2.40;;
12296;SDS011;6211;49.124;9.152;2022-09-02T06:35:53;5.85;;;2.65;;
12296;SDS011;6211;49.124;9.152;2022-09-02T06:38:20;3.92;;;2.88;;
12296;SDS011;6211;49.124;9.152;2022-09-02T06:40:48;3.60;;;2.20;;
12296;SDS011;6211;49.124;9.152;2022-09-02T06:43:16;2.92;;;2.42;;
12296;SDS011;6211;49.124;9.152;2022-09-02T06:45:43;3.03;;;2.47;;
12296;SDS011;6211;49.124;9.152;2022-09-02T06:48:11;2.60;;;2.38;;
12296;SDS011;6211;49.124;9.152;2022-09-02T06:50:40;2.70;;;2.38;;
12296;SDS011;6211;49.124;9.152;2022-09-02T06:53:08;2.60;;;2.40;;
12296;SDS011;6211;49.124;9.152;2022-09-02T06:55:36;3.38;;;2.55;;
12296;SDS011;6211;49.124;9.152;2022-09-02T06:58:03;2.20;;;2.00;;
12296;SDS011;6211;49.124;9.152;2022-09-02T07:00:30;2.30;;;2.10;;
12296;SDS011;6211;49.124;9.152;2022-09-02T07:02:59;2.40;;;2.20;;
12296;SDS011;6211;49.124;9.152;2022-09-02T07:05:45;2.25;;;1.90;;
12296;SDS011;6211;49.124;9.152;2022-09-02T07:08:13;3.03;;;2.45;;
12296;SDS011;6211;49.124;9.152;2022-09-02T07:10:40;2.38;;;2.17;;
12296;SDS011;6211;49.124;9.152;2022-09-02T07:13:07;2.53;;;2.30;;
12296;SDS011;6211;49.124;9.152;2022-09-02T07:15:34;1.98;;;1.88;;
12296;SDS011;6211;49.124;9.152;2022-09-02T07:18:02;2.20;;;2.00;;
12296;SDS011;6211;49.124;9.152;2022-09-02T07:20:29;2.35;;;2.15;;
12296;SDS011;6211;49.124;9.152;2022-09-02T07:22:57;5.57;;;2.33;;
12296;SDS011;6211;49.124;9.152;2022-09-02T07:25:24;1.95;;;1.73;;
12296;SDS011;6211;49.124;9.152;2022-09-02T07:27:52;2.15;;;1.95;;
12296;SDS011;6211;49.124;9.152;2022-09-02T07:30:19;2.28;;;2.08;;
12296;SDS011;6211;49.124;9.152;2022-09-02T07:32:46;3.08;;;2.35;;
12296;SDS011;6211;49.124;9.152;2022-09-02T07:35:13;2.33;;;2.00;;
12296;SDS011;6211;49.124;9.152;2022-09-02T07:37:41;2.20;;;1.80;;
12296;SDS011;6211;49.124;9.152;2022-09-02T07:40:10;2.33;;;1.90;;
12296;SDS011;6211;49.124;9.152;2022-09-02T07:42:39;1.90;;;1.58;;
12296;SDS011;6211;49.124;9.152;2022-09-02T07:45:06;1.52;;;1.42;;
12296;SDS011;6211;49.124;9.152;2022-09-02T07:47:33;2.10;;;1.70;;
12296;SDS011;6211;49.124;9.152;2022-09-02T07:50:01;2.17;;;1.55;;
12296;SDS011;6211;49.124;9.152;2022-09-02T07:52:28;2.78;;;1.70;;
12296;SDS011;6211;49.124;9.152;2022-09-02T07:54:58;2.05;;;1.55;;
12296;SDS011;6211;49.124;9.152;2022-09-02T07:57:28;2.92;;;1.58;;
12296;SDS011;6211;49.124;9.152;2022-09-02T07:59:56;1.92;;;1.73;;
12296;SDS011;6211;49.124;9.152;2022-09-02T08:02:23;3.75;;;1.23;;
12296;SDS011;6211;49.124;9.152;2022-09-02T08:04:50;1.38;;;1.27;;
12296;SDS011;6211;49.124;9.152;2022-09-02T08:07:18;1.80;;;1.52;;
12296;SDS011;6211;49.124;9.152;2022-09-02T08:09:48;1.30;;;1.20;;
12296;SDS011;6211;49.124;9.152;2022-09-02T08:12:15;1.48;;;1.38;;
12296;SDS011;6211;49.124;9.152;2022-09-02T08:14:44;1.85;;;1.30;;
12296;SDS011;6211;49.124;9.152;2022-09-02T08:17:11;1.58;;;1.48;;
12296;SDS011;6211;49.124;9.152;2022-09-02T08:19:38;1.63;;;1.30;;
12296;SDS011;6211;49.124;9.152;2022-09-02T08:22:05;1.63;;;1.52;;
12296;SDS011;6211;49.124;9.152;2022-09-02T08:24:33;1.33;;;1.23;;
12296;SDS011;6211;49.124;9.152;2022-09-02T08:27:00;1.45;;;1.25;;
12296;SDS011;6211;49.124;9.152;2022-09-02T08:29:27;1.00;;;0.98;;
12296;SDS011;6211;49.124;9.152;2022-09-02T08:31:57;0.90;;;0.90;;
12296;SDS011;6211;49.124;9.152;2022-09-02T08:34:24;1.35;;;1.20;;
12296;SDS011;6211;49.124;9.152;2022-09-02T08:36:51;1.40;;;1.30;;
12296;SDS011;6211;49.124;9.152;2022-09-02T08:39:20;1.20;;;1.10;;
12296;SDS011;6211;49.124;9.152;2022-09-02T08:41:50;1.23;;;1.13;;
12296;SDS011;6211;49.124;9.152;2022-09-02T08:44:20;1.13;;;1.02;;
12296;SDS011;6211;49.124;9.152;2022-09-02T08:46:49;1.92;;;1.00;;
12296;SDS011;6211;49.124;9.152;2022-09-02T08:49:21;0.88;;;0.88;;
12296;SDS011;6211;49.124;9.152;2022-09-02T08:51:50;1.15;;;1.10;;
12296;SDS011;6211;49.124;9.152;2022-09-02T08:54:20;1.52;;;0.90;;
12296;SDS011;6211;49.124;9.152;2022-09-02T08:56:50;2.63;;;1.00;;
12296;SDS011;6211;49.124;9.152;2022-09-02T08:59:17;0.90;;;0.90;;
12296;SDS011;6211;49.124;9.152;2022-09-02T09:01:46;0.82;;;0.82;;
12296;SDS011;6211;49.124;9.152;2022-09-02T09:04:17;0.80;;;0.80;;
12296;SDS011;6211;49.124;9.152;2022-09-02T09:06:54;0.90;;;0.90;;
12296;SDS011;6211;49.124;9.152;2022-09-02T09:09:26;0.85;;;0.82;;
12296;SDS011;6211;49.124;9.152;2022-09-02T09:11:58;2.75;;;0.90;;
12296;SDS011;6211;49.124;9.152;2022-09-02T09:14:28;0.65;;;0.63;;
12296;SDS011;6211;49.124;9.152;2022-09-02T09:16:58;0.90;;;0.90;;
12296;SDS011;6211;49.124;9.152;2022-09-02T09:19:29;1.27;;;1.17;;
12296;SDS011;6211;49.124;9.152;2022-09-02T09:22:02;0.77;;;0.77;;
12296;SDS011;6211;49.124;9.152;2022-09-02T09:24:30;2.58;;;0.93;;
12296;SDS011;6211;49.124;9.152;2022-09-02T09:26:59;0.85;;;0.85;;
12296;SDS011;6211;49.124;9.152;2022-09-02T09:29:29;0.93;;;0.85;;
12296;SDS011;6211;49.124;9.152;2022-09-02T09:31:57;1.00;;;0.90;;
12296;SDS011;6211;49.124;9.152;2022-09-02T09:37:09;0.88;;;0.88;;
12296;SDS011;6211;49.124;9.152;2022-09-02T09:39:36;0.93;;;0.90;;
12296;SDS011;6211;49.124;9.152;2022-09-02T09:42:08;1.65;;;0.70;;
12296;SDS011;6211;49.124;9.152;2022-09-02T09:44:39;1.85;;;0.80;;
12296;SDS011;6211;49.124;9.152;2022-09-02T09:47:09;1.55;;;0.93;;
12296;SDS011;6211;49.124;9.152;2022-09-02T09:49:36;0.98;;;0.90;;
12296;SDS011;6211;49.124;9.152;2022-09-02T09:52:04;1.15;;;0.80;;
12296;SDS011;6211;49.124;9.152;2022-09-02T09:54:32;0.70;;;0.70;;
12296;SDS011;6211;49.124;9.152;2022-09-02T09:57:12;0.93;;;0.93;;
12296;SDS011;6211;49.124;9.152;2022-09-02T09:59:41;0.80;;;0.80;;
12296;SDS011;6211;49.124;9.152;2022-09-02T10:02:12;1.00;;;0.95;;
12296;SDS011;6211;49.124;9.152;2022-09-02T10:04:44;0.63;;;0.63;;
12296;SDS011;6211;49.124;9.152;2022-09-02T10:07:11;0.77;;;0.68;;
12296;SDS011;6211;49.124;9.152;2022-09-02T10:09:40;2.38;;;1.05;;
12296;SDS011;6211;49.124;9.152;2022-09-02T10:12:07;1.25;;;1.00;;
12296;SDS011;6211;49.124;9.152;2022-09-02T10:14:35;0.85;;;0.85;;
12296;SDS011;6211;49.124;9.152;2022-09-02T10:17:06;0.63;;;0.63;;
12296;SDS011;6211;49.124;9.152;2022-09-02T10:19:36;0.80;;;0.80;;
12296;SDS011;6211;49.124;9.152;2022-09-02T10:22:27;2.97;;;0.80;;
12296;SDS011;6211;49.124;9.152;2022-09-02T10:25:01;1.48;;;0.80;;
12296;SDS011;6211;49.124;9.152;2022-09-02T10:27:36;0.63;;;0.63;;
12296;SDS011;6211;49.124;9.152;2022-09-02T10:30:07;0.70;;;0.70;;
12296;SDS011;6211;49.124;9.152;2022-09-02T10:32:39;0.93;;;0.85;;
12296;SDS011;6211;49.124;9.152;2022-09-02T10:35:09;1.52;;;0.80;;
12296;SDS011;6211;49.124;9.152;2022-09-02T10:37:41;0.70;;;0.70;;
12296;SDS011;6211;49.124;9.152;2022-09-02T10:40:12;0.90;;;0.80;;
12296;SDS011;6211;49.124;9.152;2022-09-02T10:42:45;1.95;;;0.75;;
12296;SDS011;6211;49.124;9.152;2022-09-02T10:45:15;1.08;;;0.65;;
12296;SDS011;6211;49.124;9.152;2022-09-02T10:47:45;0.60;;;0.60;;
12296;SDS011;6211;49.124;9.152;2022-09-02T10:50:16;0.50;;;0.50;;
12296;SDS011;6211;49.124;9.152;2022-09-02T10:55:35;1.10;;;0.70;;
12296;SDS011;6211;49.124;9.152;2022-09-02T10:58:06;0.85;;;0.85;;
12296;SDS011;6211;49.124;9.152;2022-09-02T11:00:34;1.13;;;0.77;;
12296;SDS011;6211;49.124;9.152;2022-09-02T11:03:06;0.70;;;0.70;;
12296;SDS011;6211;49.124;9.152;2022-09-02T11:05:37;2.60;;;0.70;;
12296;SDS011;6211;49.124;9.152;2022-09-02T11:08:07;0.63;;;0.63;;
12296;SDS011;6211;49.124;9.152;2022-09-02T11:10:40;0.82;;;0.82;;
12296;SDS011;6211;49.124;9.152;2022-09-02T11:13:10;0.75;;;0.75;;
12296;SDS011;6211;49.124;9.152;2022-09-02T11:15:42;0.70;;;0.70;;
12296;SDS011;6211;49.124;9.152;2022-09-02T11:18:12;0.65;;;0.60;;
12296;SDS011;6211;49.124;9.152;2022-09-02T11:20:43;0.70;;;0.70;;
12296;SDS011;6211;49.124;9.152;2022-09-02T11:23:15;0.63;;;0.63;;
12296;SDS011;6211;49.124;9.152;2022-09-02T11:25:48;0.70;;;0.70;;
12296;SDS011;6211;49.124;9.152;2022-09-02T11:28:24;0.60;;;0.60;;
12296;SDS011;6211;49.124;9.152;2022-09-02T11:30:56;0.82;;;0.82;;
12296;SDS011;6211;49.124;9.152;2022-09-02T11:33:25;1.38;;;0.80;;
12296;SDS011;6211;49.124;9.152;2022-09-02T11:35:56;0.60;;;0.60;;
12296;SDS011;6211;49.124;9.152;2022-09-02T11:38:29;0.60;;;0.60;;
12296;SDS011;6211;49.124;9.152;2022-09-02T11:41:11;2.15;;;0.80;;
12296;SDS011;6211;49.124;9.152;2022-09-02T11:43:43;3.90;;;0.73;;
12296;SDS011;6211;49.124;9.152;2022-09-02T11:46:18;0.63;;;0.63;;
12296;SDS011;6211;49.124;9.152;2022-09-02T11:49:14;0.77;;;0.68;;
12296;SDS011;6211;49.124;9.152;2022-09-02T11:51:57;0.75;;;0.70;;
12296;SDS011;6211;49.124;9.152;2022-09-02T11:54:26;0.45;;;0.45;;
12296;SDS011;6211;49.124;9.152;2022-09-02T11:56:57;1.40;;;0.85;;
12296;SDS011;6211;49.124;9.152;2022-09-02T12:02:08;3.50;;;0.80;;
12296;SDS011;6211;49.124;9.152;2022-09-02T12:04:36;0.73;;;0.60;;
12296;SDS011;6211;49.124;9.152;2022-09-02T12:07:22;2.22;;;0.70;;
12296;SDS011;6211;49.124;9.152;2022-09-02T12:09:50;0.60;;;0.60;;
12296;SDS011;6211;49.124;9.152;2022-09-02T12:15:12;0.63;;;0.40;;
12296;SDS011;6211;49.124;9.152;2022-09-02T12:17:44;0.52;;;0.52;;
12296;SDS011;6211;49.124;9.152;2022-09-02T12:23:07;0.68;;;0.68;;
12296;SDS011;6211;49.124;9.152;2022-09-02T12:25:35;0.60;;;0.60;;
12296;SDS011;6211;49.124;9.152;2022-09-02T12:31:11;0.95;;;0.70;;
12296;SDS011;6211;49.124;9.152;2022-09-02T12:33:40;0.70;;;0.63;;
12296;SDS011;6211;49.124;9.152;2022-09-02T12:36:08;0.75;;;0.75;;
12296;SDS011;6211;49.124;9.152;2022-09-02T12:38:36;0.70;;;0.70;;
12296;SDS011;6211;49.124;9.152;2022-09-02T12:41:08;0.77;;;0.77;;
12296;SDS011;6211;49.124;9.152;2022-09-02T12:43:42;0.77;;;0.75;;
12296;SDS011;6211;49.124;9.152;2022-09-02T12:46:20;1.98;;;0.80;;
12296;SDS011;6211;49.124;9.152;2022-09-02T12:48:53;0.70;;;0.70;;
12296;SDS011;6211;49.124;9.152;2022-09-02T12:54:10;2.15;;;1.13;;
12296;SDS011;6211;49.124;9.152;2022-09-02T12:56:38;0.65;;;0.65;;
12296;SDS011;6211;49.124;9.152;2022-09-02T12:59:18;0.70;;;0.70;;
12296;SDS011;6211;49.124;9.152;2022-09-02T13:01:52;0.80;;;0.80;;
12296;SDS011;6211;49.124;9.152;2022-09-02T13:04:24;0.60;;;0.60;;
12296;SDS011;6211;49.124;9.152;2022-09-02T13:07:03;0.73;;;0.73;;
12296;SDS011;6211;49.124;9.152;2022-09-02T13:09:48;0.80;;;0.80;;
12296;SDS011;6211;49.124;9.152;2022-09-02T13:15:17;0.77;;;0.77;;
12296;SDS011;6211;49.124;9.152;2022-09-02T13:17:53;1.92;;;0.70;;
12296;SDS011;6211;49.124;9.152;2022-09-02T13:20:36;0.60;;;0.60;;
12296;SDS011;6211;49.124;9.152;2022-09-02T13:23:17;0.73;;;0.73;;
12296;SDS011;6211;49.124;9.152;2022-09-02T13:26:02;0.68;;;0.68;;
12296;SDS011;6211;49.124;9.152;2022-09-02T13:31:18;0.52;;;0.52;;
12296;SDS011;6211;49.124;9.152;2022-09-02T13:33:47;0.63;;;0.63;;
12296;SDS011;6211;49.124;9.152;2022-09-02T13:36:21;0.63;;;0.60;;
12296;SDS011;6211;49.124;9.152;2022-09-02T13:38:50;0.60;;;0.60;;
12296;SDS011;6211;49.124;9.152;2022-09-02T13:41:26;0.60;;;0.60;;
12296;SDS011;6211;49.124;9.152;2022-09-02T13:44:03;0.60;;;0.60;;
12296;SDS011;6211;49.124;9.152;2022-09-02T13:46:30;0.70;;;0.70;;
12296;SDS011;6211;49.124;9.152;2022-09-02T13:48:59;0.70;;;0.70;;
12296;SDS011;6211;49.124;9.152;2022-09-02T13:51:26;0.77;;;0.77;;
12296;SDS011;6211;49.124;9.152;2022-09-02T13:53:53;0.80;;;0.80;;
12296;SDS011;6211;49.124;9.152;2022-09-02T13:56:24;0.70;;;0.70;;
12296;SDS011;6211;49.124;9.152;2022-09-02T13:58:54;0.50;;;0.50;;
12296;SDS011;6211;49.124;9.152;2022-09-02T14:01:22;0.80;;;0.80;;
12296;SDS011;6211;49.124;9.152;2022-09-02T14:03:51;1.27;;;0.60;;
12296;SDS011;6211;49.124;9.152;2022-09-02T14:06:21;0.60;;;0.60;;
12296;SDS011;6211;49.124;9.152;2022-09-02T14:08:49;1.65;;;0.77;;
12296;SDS011;6211;49.124;9.152;2022-09-02T14:11:17;0.70;;;0.70;;
12296;SDS011;6211;49.124;9.152;2022-09-02T14:13:45;0.65;;;0.50;;
12296;SDS011;6211;49.124;9.152;2022-09-02T14:16:23;0.70;;;0.70;;
12296;SDS011;6211;49.124;9.152;2022-09-02T14:19:07;0.65;;;0.60;;
12296;SDS011;6211;49.124;9.152;2022-09-02T14:21:36;0.70;;;0.70;;
12296;SDS011;6211;49.124;9.152;2022-09-02T14:24:03;0.73;;;0.73;;
12296;SDS011;6211;49.124;9.152;2022-09-02T14:26:31;1.05;;;0.60;;
12296;SDS011;6211;49.124;9.152;2022-09-02T14:28:59;0.70;;;0.70;;
12296;SDS011;6211;49.124;9.152;2022-09-02T14:31:27;0.40;;;0.40;;
12296;SDS011;6211;49.124;9.152;2022-09-02T14:33:57;0.60;;;0.60;;
12296;SDS011;6211;49.124;9.152;2022-09-02T14:36:31;0.60;;;0.60;;
12296;SDS011;6211;49.124;9.152;2022-09-02T14:39:10;0.88;;;0.88;;
12296;SDS011;6211;49.124;9.152;2022-09-02T14:41:41;0.50;;;0.50;;
12296;SDS011;6211;49.124;9.152;2022-09-02T14:44:09;1.33;;;0.80;;
12296;SDS011;6211;49.124;9.152;2022-09-02T14:46:41;0.70;;;0.70;;
12296;SDS011;6211;49.124;9.152;2022-09-02T14:49:10;0.68;;;0.68;;
12296;SDS011;6211;49.124;9.152;2022-09-02T14:51:41;0.50;;;0.50;;
12296;SDS011;6211;49.124;9.152;2022-09-02T14:54:11;0.70;;;0.70;;
12296;SDS011;6211;49.124;9.152;2022-09-02T14:56:45;0.70;;;0.70;;
12296;SDS011;6211;49.124;9.152;2022-09-02T14:59:13;0.60;;;0.60;;
12296;SDS011;6211;49.124;9.152;2022-09-02T15:01:40;3.10;;;0.70;;
12296;SDS011;6211;49.124;9.152;2022-09-02T15:04:08;0.77;;;0.77;;
12296;SDS011;6211;49.124;9.152;2022-09-02T15:06:35;0.60;;;0.60;;
12296;SDS011;6211;49.124;9.152;2022-09-02T15:09:02;0.52;;;0.52;;
12296;SDS011;6211;49.124;9.152;2022-09-02T15:11:31;0.70;;;0.70;;
12296;SDS011;6211;49.124;9.152;2022-09-02T15:13:58;0.60;;;0.60;;
12296;SDS011;6211;49.124;9.152;2022-09-02T15:16:25;0.70;;;0.70;;
12296;SDS011;6211;49.124;9.152;2022-09-02T15:18:53;0.70;;;0.70;;
12296;SDS011;6211;49.124;9.152;2022-09-02T15:21:20;0.90;;;0.90;;
12296;SDS011;6211;49.124;9.152;2022-09-02T15:23:48;0.80;;;0.80;;
12296;SDS011;6211;49.124;9.152;2022-09-02T15:26:15;0.90;;;0.90;;
12296;SDS011;6211;49.124;9.152;2022-09-02T15:28:43;0.43;;;0.43;;
12296;SDS011;6211;49.124;9.152;2022-09-02T15:31:10;0.65;;;0.65;;
12296;SDS011;6211;49.124;9.152;2022-09-02T15:33:38;0.75;;;0.60;;
12296;SDS011;6211;49.124;9.152;2022-09-02T15:36:06;0.82;;;0.80;;
12296;SDS011;6211;49.124;9.152;2022-09-02T15:38:33;0.70;;;0.70;;